sensor_id;sensor_type;location;lat;lon;timestamp;P1;durP1;ratioP1;P2;durP2;ratioP2
48526;SDS011;34317;51.660;5.824;2023-04-30T00:00:34;13.35;;;8.75;;
48526;SDS011;34317;51.660;5.824;2023-04-30T00:03:02;13.23;;;8.32;;
48526;SDS011;34317;51.660;5.824;2023-04-30T00:05:30;15.30;;;8.93;;
48526;SDS011;34317;51.660;5.824;2023-04-30T00:07:57;13.93;;;8.48;;
48526;SDS011;34317;51.660;5.824;2023-04-30T00:10:25;12.70;;;8.40;;
48526;SDS011;34317;51.660;5.824;2023-04-30T00:12:52;12.02;;;8.57;;
48526;SDS011;34317;51.660;5.824;2023-04-30T00:15:19;14.00;;;8.43;;
48526;SDS011;34317;51.660;5.824;2023-04-30T00:17:46;12.80;;;8.57;;
48526;SDS011;34317;51.660;5.824;2023-04-30T00:20:13;15.63;;;8.18;;
48526;SDS011;34317;51.660;5.824;2023-04-30T00:22:41;15.35;;;8.70;;
48526;SDS011;34317;51.660;5.824;2023-04-30T00:25:08;12.85;;;8.30;;
48526;SDS011;34317;51.660;5.824;2023-04-30T00:27:36;15.13;;;8.70;;
48526;SDS011;34317;51.660;5.824;2023-04-30T00:30:07;15.25;;;8.48;;
48526;SDS011;34317;51.660;5.824;2023-04-30T00:32:34;13.35;;;8.60;;
48526;SDS011;34317;51.660;5.824;2023-04-30T00:35:02;15.20;;;7.97;;
48526;SDS011;34317;51.660;5.824;2023-04-30T00:37:31;12.43;;;7.38;;
48526;SDS011;34317;51.660;5.824;2023-04-30T00:39:58;11.30;;;8.07;;
48526;SDS011;34317;51.660;5.824;2023-04-30T00:42:26;13.00;;;7.70;;
48526;SDS011;34317;51.660;5.824;2023-04-30T00:44:53;15.82;;;8.15;;
48526;SDS011;34317;51.660;5.824;2023-04-30T00:47:21;11.50;;;7.63;;
48526;SDS011;34317;51.660;5.824;2023-04-30T00:49:49;11.27;;;6.88;;
48526;SDS011;34317;51.660;5.824;2023-04-30T00:52:18;14.48;;;8.05;;
48526;SDS011;34317;51.660;5.824;2023-04-30T00:55:19;14.93;;;7.68;;
48526;SDS011;34317;51.660;5.824;2023-04-30T00:58:06;16.90;;;7.47;;
48526;SDS011;34317;51.660;5.824;2023-04-30T01:02:01;10.93;;;6.95;;
48526;SDS011;34317;51.660;5.824;2023-04-30T01:05:44;13.07;;;7.43;;
48526;SDS011;34317;51.660;5.824;2023-04-30T01:20:47;12.77;;;7.47;;
48526;SDS011;34317;51.660;5.824;2023-04-30T01:28:52;11.98;;;7.32;;
48526;SDS011;34317;51.660;5.824;2023-04-30T01:31:20;9.82;;;7.18;;
48526;SDS011;34317;51.660;5.824;2023-04-30T01:33:49;13.68;;;7.57;;
48526;SDS011;34317;51.660;5.824;2023-04-30T01:53:20;12.40;;;8.02;;
48526;SDS011;34317;51.660;5.824;2023-04-30T01:55:57;14.43;;;8.05;;
48526;SDS011;34317;51.660;5.824;2023-04-30T01:58:28;13.18;;;8.13;;
48526;SDS011;34317;51.660;5.824;2023-04-30T02:00:56;12.93;;;7.18;;
48526;SDS011;34317;51.660;5.824;2023-04-30T02:03:23;13.30;;;7.97;;
48526;SDS011;34317;51.660;5.824;2023-04-30T02:05:51;12.00;;;7.75;;
48526;SDS011;34317;51.660;5.824;2023-04-30T02:08:20;12.77;;;7.60;;
48526;SDS011;34317;51.660;5.824;2023-04-30T02:10:47;13.70;;;7.90;;
48526;SDS011;34317;51.660;5.824;2023-04-30T02:13:14;11.77;;;7.57;;
48526;SDS011;34317;51.660;5.824;2023-04-30T02:15:41;11.50;;;7.55;;
48526;SDS011;34317;51.660;5.824;2023-04-30T02:18:09;12.13;;;7.65;;
48526;SDS011;34317;51.660;5.824;2023-04-30T02:20:36;12.23;;;7.70;;
48526;SDS011;34317;51.660;5.824;2023-04-30T02:23:03;11.43;;;7.63;;
48526;SDS011;34317;51.660;5.824;2023-04-30T02:25:30;12.25;;;7.97;;
48526;SDS011;34317;51.660;5.824;2023-04-30T02:28:03;13.95;;;8.27;;
48526;SDS011;34317;51.660;5.824;2023-04-30T02:30:31;15.85;;;8.10;;
48526;SDS011;34317;51.660;5.824;2023-04-30T02:32:58;15.68;;;8.52;;
48526;SDS011;34317;51.660;5.824;2023-04-30T02:35:25;13.77;;;8.77;;
48526;SDS011;34317;51.660;5.824;2023-04-30T02:37:53;11.95;;;8.40;;
48526;SDS011;34317;51.660;5.824;2023-04-30T02:40:20;11.90;;;8.05;;
48526;SDS011;34317;51.660;5.824;2023-04-30T02:42:47;12.73;;;8.48;;
48526;SDS011;34317;51.660;5.824;2023-04-30T02:45:14;11.48;;;7.63;;
48526;SDS011;34317;51.660;5.824;2023-04-30T02:47:42;12.55;;;7.72;;
48526;SDS011;34317;51.660;5.824;2023-04-30T02:50:09;11.95;;;7.88;;
48526;SDS011;34317;51.660;5.824;2023-04-30T02:52:37;13.18;;;7.85;;
48526;SDS011;34317;51.660;5.824;2023-04-30T02:55:04;13.18;;;7.63;;
48526;SDS011;34317;51.660;5.824;2023-04-30T02:57:32;12.85;;;8.10;;
48526;SDS011;34317;51.660;5.824;2023-04-30T02:59:59;13.45;;;8.70;;
48526;SDS011;34317;51.660;5.824;2023-04-30T03:02:26;15.25;;;9.15;;
48526;SDS011;34317;51.660;5.824;2023-04-30T03:04:54;14.48;;;8.73;;
48526;SDS011;34317;51.660;5.824;2023-04-30T03:07:21;14.68;;;8.60;;
48526;SDS011;34317;51.660;5.824;2023-04-30T03:09:48;14.68;;;9.30;;
48526;SDS011;34317;51.660;5.824;2023-04-30T03:12:16;11.93;;;8.38;;
48526;SDS011;34317;51.660;5.824;2023-04-30T03:14:43;13.00;;;8.43;;
48526;SDS011;34317;51.660;5.824;2023-04-30T03:17:10;13.02;;;8.27;;
48526;SDS011;34317;51.660;5.824;2023-04-30T03:19:37;10.70;;;7.55;;
48526;SDS011;34317;51.660;5.824;2023-04-30T03:22:04;13.45;;;8.52;;
48526;SDS011;34317;51.660;5.824;2023-04-30T03:24:32;14.32;;;8.38;;
48526;SDS011;34317;51.660;5.824;2023-04-30T03:26:59;14.57;;;8.13;;
48526;SDS011;34317;51.660;5.824;2023-04-30T03:29:28;11.75;;;7.93;;
48526;SDS011;34317;51.660;5.824;2023-04-30T03:31:55;14.48;;;8.13;;
48526;SDS011;34317;51.660;5.824;2023-04-30T03:34:22;13.20;;;8.27;;
48526;SDS011;34317;51.660;5.824;2023-04-30T03:36:50;14.55;;;8.60;;
48526;SDS011;34317;51.660;5.824;2023-04-30T03:39:17;13.77;;;8.18;;
48526;SDS011;34317;51.660;5.824;2023-04-30T03:41:44;13.02;;;8.27;;
48526;SDS011;34317;51.660;5.824;2023-04-30T03:44:11;14.52;;;8.10;;
48526;SDS011;34317;51.660;5.824;2023-04-30T03:46:41;13.40;;;7.55;;
48526;SDS011;34317;51.660;5.824;2023-04-30T03:49:09;14.68;;;8.15;;
48526;SDS011;34317;51.660;5.824;2023-04-30T03:51:37;13.70;;;8.32;;
48526;SDS011;34317;51.660;5.824;2023-04-30T03:54:08;14.45;;;8.07;;
48526;SDS011;34317;51.660;5.824;2023-04-30T03:56:35;13.80;;;8.10;;
48526;SDS011;34317;51.660;5.824;2023-04-30T03:59:04;17.50;;;8.50;;
48526;SDS011;34317;51.660;5.824;2023-04-30T04:01:32;13.35;;;8.10;;
48526;SDS011;34317;51.660;5.824;2023-04-30T04:03:59;16.13;;;8.75;;
48526;SDS011;34317;51.660;5.824;2023-04-30T04:06:26;17.70;;;8.43;;
48526;SDS011;34317;51.660;5.824;2023-04-30T04:08:54;12.35;;;7.75;;
48526;SDS011;34317;51.660;5.824;2023-04-30T04:11:21;12.05;;;8.15;;
48526;SDS011;34317;51.660;5.824;2023-04-30T04:13:49;17.05;;;8.32;;
48526;SDS011;34317;51.660;5.824;2023-04-30T04:16:17;15.85;;;8.45;;
48526;SDS011;34317;51.660;5.824;2023-04-30T04:18:44;15.50;;;8.48;;
48526;SDS011;34317;51.660;5.824;2023-04-30T04:21:12;12.55;;;7.93;;
48526;SDS011;34317;51.660;5.824;2023-04-30T04:23:39;15.85;;;8.50;;
48526;SDS011;34317;51.660;5.824;2023-04-30T04:26:06;14.55;;;8.77;;
48526;SDS011;34317;51.660;5.824;2023-04-30T04:28:33;18.15;;;8.95;;
48526;SDS011;34317;51.660;5.824;2023-04-30T04:31:01;16.13;;;8.75;;
48526;SDS011;34317;51.660;5.824;2023-04-30T04:33:29;17.02;;;9.35;;
48526;SDS011;34317;51.660;5.824;2023-04-30T04:35:56;14.13;;;8.32;;
48526;SDS011;34317;51.660;5.824;2023-04-30T04:38:24;11.93;;;8.43;;
48526;SDS011;34317;51.660;5.824;2023-04-30T04:40:52;14.32;;;8.82;;
48526;SDS011;34317;51.660;5.824;2023-04-30T04:43:21;15.77;;;9.40;;
48526;SDS011;34317;51.660;5.824;2023-04-30T04:45:48;15.32;;;9.57;;
48526;SDS011;34317;51.660;5.824;2023-04-30T04:48:16;16.08;;;8.98;;
48526;SDS011;34317;51.660;5.824;2023-04-30T04:50:43;15.00;;;9.05;;
48526;SDS011;34317;51.660;5.824;2023-04-30T04:53:10;14.88;;;9.18;;
48526;SDS011;34317;51.660;5.824;2023-04-30T04:55:39;15.25;;;9.68;;
48526;SDS011;34317;51.660;5.824;2023-04-30T04:58:06;15.20;;;9.73;;
48526;SDS011;34317;51.660;5.824;2023-04-30T05:00:34;13.48;;;9.52;;
48526;SDS011;34317;51.660;5.824;2023-04-30T05:03:02;14.93;;;9.57;;
48526;SDS011;34317;51.660;5.824;2023-04-30T05:05:29;15.13;;;9.07;;
48526;SDS011;34317;51.660;5.824;2023-04-30T05:07:56;15.82;;;8.50;;
48526;SDS011;34317;51.660;5.824;2023-04-30T05:10:23;16.48;;;9.15;;
48526;SDS011;34317;51.660;5.824;2023-04-30T05:12:51;16.85;;;9.98;;
48526;SDS011;34317;51.660;5.824;2023-04-30T05:15:18;13.45;;;9.80;;
48526;SDS011;34317;51.660;5.824;2023-04-30T05:17:46;16.20;;;10.52;;
48526;SDS011;34317;51.660;5.824;2023-04-30T05:20:13;17.80;;;10.65;;
48526;SDS011;34317;51.660;5.824;2023-04-30T05:22:41;16.08;;;10.43;;
48526;SDS011;34317;51.660;5.824;2023-04-30T05:25:08;16.60;;;10.98;;
48526;SDS011;34317;51.660;5.824;2023-04-30T05:27:35;17.60;;;10.27;;
48526;SDS011;34317;51.660;5.824;2023-04-30T05:30:03;15.25;;;9.65;;
48526;SDS011;34317;51.660;5.824;2023-04-30T05:32:30;15.63;;;10.35;;
48526;SDS011;34317;51.660;5.824;2023-04-30T05:34:58;18.77;;;9.95;;
48526;SDS011;34317;51.660;5.824;2023-04-30T05:37:25;16.05;;;10.27;;
48526;SDS011;34317;51.660;5.824;2023-04-30T05:39:52;14.18;;;10.07;;
48526;SDS011;34317;51.660;5.824;2023-04-30T05:42:20;17.17;;;10.35;;
48526;SDS011;34317;51.660;5.824;2023-04-30T05:44:48;14.82;;;10.20;;
48526;SDS011;34317;51.660;5.824;2023-04-30T05:47:15;17.17;;;10.20;;
48526;SDS011;34317;51.660;5.824;2023-04-30T05:49:42;15.18;;;9.90;;
48526;SDS011;34317;51.660;5.824;2023-04-30T05:52:10;17.45;;;11.18;;
48526;SDS011;34317;51.660;5.824;2023-04-30T05:54:37;15.43;;;10.18;;
48526;SDS011;34317;51.660;5.824;2023-04-30T05:57:05;18.20;;;10.45;;
48526;SDS011;34317;51.660;5.824;2023-04-30T05:59:32;17.70;;;10.60;;
48526;SDS011;34317;51.660;5.824;2023-04-30T06:01:59;16.50;;;10.23;;
48526;SDS011;34317;51.660;5.824;2023-04-30T06:04:27;18.65;;;10.52;;
48526;SDS011;34317;51.660;5.824;2023-04-30T06:06:55;19.38;;;10.82;;
48526;SDS011;34317;51.660;5.824;2023-04-30T06:09:22;15.68;;;9.38;;
48526;SDS011;34317;51.660;5.824;2023-04-30T06:11:49;12.65;;;9.27;;
48526;SDS011;34317;51.660;5.824;2023-04-30T06:14:18;17.65;;;9.52;;
48526;SDS011;34317;51.660;5.824;2023-04-30T06:16:46;13.95;;;8.80;;
48526;SDS011;34317;51.660;5.824;2023-04-30T06:19:13;16.20;;;9.68;;
48526;SDS011;34317;51.660;5.824;2023-04-30T06:21:40;13.73;;;8.20;;
48526;SDS011;34317;51.660;5.824;2023-04-30T06:24:09;13.45;;;8.25;;
48526;SDS011;34317;51.660;5.824;2023-04-30T06:26:36;12.10;;;8.65;;
48526;SDS011;34317;51.660;5.824;2023-04-30T06:29:05;14.65;;;8.48;;
48526;SDS011;34317;51.660;5.824;2023-04-30T06:31:32;14.18;;;8.75;;
48526;SDS011;34317;51.660;5.824;2023-04-30T06:33:59;13.30;;;8.18;;
48526;SDS011;34317;51.660;5.824;2023-04-30T06:36:26;14.60;;;8.23;;
48526;SDS011;34317;51.660;5.824;2023-04-30T06:38:53;13.35;;;7.72;;
48526;SDS011;34317;51.660;5.824;2023-04-30T06:41:21;14.45;;;8.25;;
48526;SDS011;34317;51.660;5.824;2023-04-30T06:43:48;14.93;;;9.00;;
48526;SDS011;34317;51.660;5.824;2023-04-30T06:46:15;14.55;;;7.95;;
48526;SDS011;34317;51.660;5.824;2023-04-30T06:48:43;10.60;;;7.88;;
48526;SDS011;34317;51.660;5.824;2023-04-30T06:51:10;15.05;;;8.10;;
48526;SDS011;34317;51.660;5.824;2023-04-30T06:53:37;12.35;;;8.20;;
48526;SDS011;34317;51.660;5.824;2023-04-30T06:56:04;11.32;;;7.63;;
48526;SDS011;34317;51.660;5.824;2023-04-30T06:58:32;11.52;;;8.15;;
48526;SDS011;34317;51.660;5.824;2023-04-30T07:00:59;12.10;;;8.05;;
48526;SDS011;34317;51.660;5.824;2023-04-30T07:03:27;12.73;;;8.15;;
48526;SDS011;34317;51.660;5.824;2023-04-30T07:05:55;13.95;;;8.60;;
48526;SDS011;34317;51.660;5.824;2023-04-30T07:08:22;13.65;;;8.10;;
48526;SDS011;34317;51.660;5.824;2023-04-30T07:10:49;13.05;;;7.88;;
48526;SDS011;34317;51.660;5.824;2023-04-30T07:13:16;11.05;;;7.47;;
48526;SDS011;34317;51.660;5.824;2023-04-30T07:15:44;12.60;;;7.68;;
48526;SDS011;34317;51.660;5.824;2023-04-30T07:18:11;10.57;;;7.63;;
48526;SDS011;34317;51.660;5.824;2023-04-30T07:20:38;10.75;;;7.40;;
48526;SDS011;34317;51.660;5.824;2023-04-30T07:23:05;11.45;;;7.18;;
48526;SDS011;34317;51.660;5.824;2023-04-30T07:25:33;11.93;;;7.88;;
48526;SDS011;34317;51.660;5.824;2023-04-30T07:28:01;11.52;;;7.22;;
48526;SDS011;34317;51.660;5.824;2023-04-30T07:30:28;10.65;;;7.43;;
48526;SDS011;34317;51.660;5.824;2023-04-30T07:32:55;12.48;;;7.70;;
48526;SDS011;34317;51.660;5.824;2023-04-30T07:35:22;12.40;;;7.72;;
48526;SDS011;34317;51.660;5.824;2023-04-30T07:37:50;10.65;;;6.85;;
48526;SDS011;34317;51.660;5.824;2023-04-30T07:40:17;11.70;;;7.13;;
48526;SDS011;34317;51.660;5.824;2023-04-30T07:43:00;12.68;;;7.65;;
48526;SDS011;34317;51.660;5.824;2023-04-30T07:45:27;12.75;;;7.15;;
48526;SDS011;34317;51.660;5.824;2023-04-30T07:47:55;11.93;;;7.15;;
48526;SDS011;34317;51.660;5.824;2023-04-30T07:50:22;10.65;;;6.93;;
48526;SDS011;34317;51.660;5.824;2023-04-30T07:52:49;9.93;;;6.75;;
48526;SDS011;34317;51.660;5.824;2023-04-30T07:55:17;10.00;;;7.05;;
48526;SDS011;34317;51.660;5.824;2023-04-30T07:57:44;9.50;;;6.55;;
48526;SDS011;34317;51.660;5.824;2023-04-30T08:00:12;9.95;;;7.00;;
48526;SDS011;34317;51.660;5.824;2023-04-30T08:02:41;12.02;;;7.20;;
48526;SDS011;34317;51.660;5.824;2023-04-30T08:05:11;10.85;;;6.97;;
48526;SDS011;34317;51.660;5.824;2023-04-30T08:07:38;10.75;;;7.18;;
48526;SDS011;34317;51.660;5.824;2023-04-30T08:10:07;10.82;;;6.93;;
48526;SDS011;34317;51.660;5.824;2023-04-30T08:12:35;11.15;;;6.63;;
48526;SDS011;34317;51.660;5.824;2023-04-30T08:15:03;11.80;;;7.25;;
48526;SDS011;34317;51.660;5.824;2023-04-30T08:17:33;13.70;;;7.75;;
48526;SDS011;34317;51.660;5.824;2023-04-30T08:20:04;10.55;;;7.22;;
48526;SDS011;34317;51.660;5.824;2023-04-30T08:22:32;10.40;;;6.75;;
48526;SDS011;34317;51.660;5.824;2023-04-30T08:24:59;13.98;;;7.40;;
48526;SDS011;34317;51.660;5.824;2023-04-30T08:27:29;9.85;;;6.72;;
48526;SDS011;34317;51.660;5.824;2023-04-30T08:29:58;12.55;;;7.15;;
48526;SDS011;34317;51.660;5.824;2023-04-30T08:32:25;8.88;;;6.90;;
48526;SDS011;34317;51.660;5.824;2023-04-30T08:34:53;12.15;;;7.40;;
48526;SDS011;34317;51.660;5.824;2023-04-30T08:37:21;11.77;;;7.53;;
48526;SDS011;34317;51.660;5.824;2023-04-30T08:39:48;9.63;;;7.07;;
48526;SDS011;34317;51.660;5.824;2023-04-30T08:42:15;11.40;;;7.32;;
48526;SDS011;34317;51.660;5.824;2023-04-30T08:44:44;9.43;;;6.90;;
48526;SDS011;34317;51.660;5.824;2023-04-30T08:47:12;9.45;;;7.22;;
48526;SDS011;34317;51.660;5.824;2023-04-30T08:49:40;11.15;;;7.18;;
48526;SDS011;34317;51.660;5.824;2023-04-30T08:52:08;10.65;;;7.05;;
48526;SDS011;34317;51.660;5.824;2023-04-30T08:54:36;12.60;;;7.35;;
48526;SDS011;34317;51.660;5.824;2023-04-30T08:57:04;11.15;;;8.07;;
48526;SDS011;34317;51.660;5.824;2023-04-30T08:59:31;12.00;;;7.70;;
48526;SDS011;34317;51.660;5.824;2023-04-30T09:01:59;9.45;;;6.72;;
48526;SDS011;34317;51.660;5.824;2023-04-30T09:04:27;10.57;;;7.25;;
48526;SDS011;34317;51.660;5.824;2023-04-30T09:06:55;9.88;;;7.18;;
48526;SDS011;34317;51.660;5.824;2023-04-30T09:09:28;11.90;;;7.97;;
48526;SDS011;34317;51.660;5.824;2023-04-30T09:15:01;11.05;;;7.20;;
48526;SDS011;34317;51.660;5.824;2023-04-30T09:17:32;12.60;;;7.32;;
48526;SDS011;34317;51.660;5.824;2023-04-30T09:20:10;11.48;;;7.20;;
48526;SDS011;34317;51.660;5.824;2023-04-30T09:22:39;7.35;;;5.88;;
48526;SDS011;34317;51.660;5.824;2023-04-30T09:25:08;8.23;;;5.90;;
48526;SDS011;34317;51.660;5.824;2023-04-30T09:27:37;7.38;;;5.32;;
48526;SDS011;34317;51.660;5.824;2023-04-30T09:30:04;8.38;;;5.97;;
48526;SDS011;34317;51.660;5.824;2023-04-30T09:32:32;8.40;;;5.82;;
48526;SDS011;34317;51.660;5.824;2023-04-30T09:35:00;8.48;;;5.47;;
48526;SDS011;34317;51.660;5.824;2023-04-30T09:37:36;10.52;;;6.05;;
48526;SDS011;34317;51.660;5.824;2023-04-30T09:40:04;9.32;;;6.03;;
48526;SDS011;34317;51.660;5.824;2023-04-30T09:42:32;6.95;;;5.50;;
48526;SDS011;34317;51.660;5.824;2023-04-30T09:44:59;7.35;;;5.30;;
48526;SDS011;34317;51.660;5.824;2023-04-30T09:47:28;6.93;;;4.88;;
48526;SDS011;34317;51.660;5.824;2023-04-30T09:49:57;6.25;;;3.65;;
48526;SDS011;34317;51.660;5.824;2023-04-30T09:52:25;6.63;;;4.80;;
48526;SDS011;34317;51.660;5.824;2023-04-30T09:54:52;5.43;;;4.10;;
48526;SDS011;34317;51.660;5.824;2023-04-30T09:57:21;7.03;;;4.85;;
48526;SDS011;34317;51.660;5.824;2023-04-30T09:59:49;8.02;;;4.90;;
48526;SDS011;34317;51.660;5.824;2023-04-30T10:02:20;5.20;;;3.83;;
48526;SDS011;34317;51.660;5.824;2023-04-30T10:04:52;6.75;;;4.80;;
48526;SDS011;34317;51.660;5.824;2023-04-30T10:07:23;7.65;;;5.20;;
48526;SDS011;34317;51.660;5.824;2023-04-30T10:10:13;4.80;;;3.63;;
48526;SDS011;34317;51.660;5.824;2023-04-30T10:12:46;4.97;;;3.53;;
48526;SDS011;34317;51.660;5.824;2023-04-30T10:15:19;6.07;;;4.28;;
48526;SDS011;34317;51.660;5.824;2023-04-30T10:17:53;7.47;;;4.22;;
48526;SDS011;34317;51.660;5.824;2023-04-30T10:20:26;6.38;;;4.00;;
48526;SDS011;34317;51.660;5.824;2023-04-30T10:22:55;6.28;;;3.85;;
48526;SDS011;34317;51.660;5.824;2023-04-30T10:25:23;6.22;;;3.97;;
48526;SDS011;34317;51.660;5.824;2023-04-30T10:27:53;5.78;;;4.22;;
48526;SDS011;34317;51.660;5.824;2023-04-30T10:30:21;6.47;;;4.53;;
48526;SDS011;34317;51.660;5.824;2023-04-30T10:32:58;5.85;;;4.40;;
48526;SDS011;34317;51.660;5.824;2023-04-30T10:35:46;4.82;;;3.25;;
48526;SDS011;34317;51.660;5.824;2023-04-30T10:38:22;8.05;;;3.83;;
48526;SDS011;34317;51.660;5.824;2023-04-30T10:40:54;5.47;;;3.88;;
48526;SDS011;34317;51.660;5.824;2023-04-30T10:43:24;6.03;;;4.63;;
48526;SDS011;34317;51.660;5.824;2023-04-30T10:45:51;7.18;;;4.60;;
48526;SDS011;34317;51.660;5.824;2023-04-30T10:48:21;5.78;;;4.43;;
48526;SDS011;34317;51.660;5.824;2023-04-30T10:50:56;7.55;;;5.07;;
48526;SDS011;34317;51.660;5.824;2023-04-30T10:53:25;8.02;;;4.82;;
48526;SDS011;34317;51.660;5.824;2023-04-30T10:58:33;6.43;;;4.80;;
48526;SDS011;34317;51.660;5.824;2023-04-30T11:01:11;7.70;;;4.78;;
48526;SDS011;34317;51.660;5.824;2023-04-30T11:03:42;5.07;;;4.57;;
48526;SDS011;34317;51.660;5.824;2023-04-30T11:09:42;5.85;;;4.53;;
48526;SDS011;34317;51.660;5.824;2023-04-30T11:12:11;5.22;;;3.72;;
48526;SDS011;34317;51.660;5.824;2023-04-30T11:14:45;4.88;;;3.60;;
48526;SDS011;34317;51.660;5.824;2023-04-30T11:17:21;5.72;;;3.95;;
48526;SDS011;34317;51.660;5.824;2023-04-30T11:19:50;6.60;;;4.88;;
48526;SDS011;34317;51.660;5.824;2023-04-30T11:22:22;6.35;;;4.75;;
48526;SDS011;34317;51.660;5.824;2023-04-30T11:27:29;6.30;;;5.28;;
48526;SDS011;34317;51.660;5.824;2023-04-30T11:29:58;6.28;;;3.90;;
48526;SDS011;34317;51.660;5.824;2023-04-30T11:32:31;6.65;;;4.38;;
48526;SDS011;34317;51.660;5.824;2023-04-30T11:35:03;5.55;;;4.15;;
48526;SDS011;34317;51.660;5.824;2023-04-30T11:37:35;5.78;;;3.92;;
48526;SDS011;34317;51.660;5.824;2023-04-30T11:40:07;4.05;;;3.17;;
48526;SDS011;34317;51.660;5.824;2023-04-30T11:42:37;5.00;;;3.33;;
48526;SDS011;34317;51.660;5.824;2023-04-30T11:45:16;5.03;;;3.38;;
48526;SDS011;34317;51.660;5.824;2023-04-30T11:47:47;6.40;;;4.10;;
48526;SDS011;34317;51.660;5.824;2023-04-30T11:50:26;5.25;;;3.42;;
48526;SDS011;34317;51.660;5.824;2023-04-30T11:52:58;4.70;;;3.38;;
48526;SDS011;34317;51.660;5.824;2023-04-30T11:55:31;5.47;;;3.63;;
48526;SDS011;34317;51.660;5.824;2023-04-30T11:57:58;4.70;;;3.10;;
48526;SDS011;34317;51.660;5.824;2023-04-30T12:00:26;5.18;;;3.45;;
48526;SDS011;34317;51.660;5.824;2023-04-30T12:02:55;4.85;;;3.83;;
48526;SDS011;34317;51.660;5.824;2023-04-30T12:05:25;5.10;;;3.28;;
48526;SDS011;34317;51.660;5.824;2023-04-30T12:07:55;4.63;;;3.35;;
48526;SDS011;34317;51.660;5.824;2023-04-30T12:10:26;5.40;;;3.75;;
48526;SDS011;34317;51.660;5.824;2023-04-30T12:12:53;4.15;;;3.58;;
48526;SDS011;34317;51.660;5.824;2023-04-30T12:15:21;4.72;;;3.50;;
48526;SDS011;34317;51.660;5.824;2023-04-30T12:17:54;4.40;;;3.08;;
48526;SDS011;34317;51.660;5.824;2023-04-30T12:20:25;5.10;;;3.22;;
48526;SDS011;34317;51.660;5.824;2023-04-30T12:22:55;6.60;;;3.60;;
48526;SDS011;34317;51.660;5.824;2023-04-30T12:25:24;3.92;;;3.20;;
48526;SDS011;34317;51.660;5.824;2023-04-30T12:27:54;5.93;;;3.70;;
48526;SDS011;34317;51.660;5.824;2023-04-30T12:30:25;5.25;;;3.55;;
48526;SDS011;34317;51.660;5.824;2023-04-30T12:32:53;6.28;;;4.15;;
48526;SDS011;34317;51.660;5.824;2023-04-30T12:35:26;5.85;;;4.10;;
48526;SDS011;34317;51.660;5.824;2023-04-30T12:38:04;6.43;;;3.55;;
48526;SDS011;34317;51.660;5.824;2023-04-30T12:40:33;5.97;;;3.45;;
48526;SDS011;34317;51.660;5.824;2023-04-30T12:43:04;3.83;;;3.13;;
48526;SDS011;34317;51.660;5.824;2023-04-30T12:45:46;4.13;;;2.92;;
48526;SDS011;34317;51.660;5.824;2023-04-30T12:48:18;5.25;;;3.28;;
48526;SDS011;34317;51.660;5.824;2023-04-30T12:50:58;5.38;;;3.65;;
48526;SDS011;34317;51.660;5.824;2023-04-30T12:56:10;4.63;;;3.50;;
48526;SDS011;34317;51.660;5.824;2023-04-30T12:58:43;5.22;;;3.50;;
48526;SDS011;34317;51.660;5.824;2023-04-30T13:01:15;4.80;;;3.67;;
48526;SDS011;34317;51.660;5.824;2023-04-30T13:03:44;4.82;;;3.72;;
48526;SDS011;34317;51.660;5.824;2023-04-30T13:06:11;5.78;;;3.70;;
48526;SDS011;34317;51.660;5.824;2023-04-30T13:08:38;3.80;;;3.00;;
48526;SDS011;34317;51.660;5.824;2023-04-30T13:11:23;3.50;;;2.77;;
48526;SDS011;34317;51.660;5.824;2023-04-30T13:13:52;3.20;;;2.40;;
48526;SDS011;34317;51.660;5.824;2023-04-30T13:16:23;3.70;;;2.00;;
48526;SDS011;34317;51.660;5.824;2023-04-30T13:18:51;2.22;;;1.65;;
48526;SDS011;34317;51.660;5.824;2023-04-30T13:21:19;4.00;;;2.45;;
48526;SDS011;34317;51.660;5.824;2023-04-30T13:23:47;2.92;;;2.53;;
48526;SDS011;34317;51.660;5.824;2023-04-30T13:26:20;4.75;;;2.75;;
48526;SDS011;34317;51.660;5.824;2023-04-30T13:28:49;4.72;;;3.30;;
48526;SDS011;34317;51.660;5.824;2023-04-30T13:31:17;3.95;;;2.80;;
48526;SDS011;34317;51.660;5.824;2023-04-30T13:33:44;3.90;;;2.70;;
48526;SDS011;34317;51.660;5.824;2023-04-30T13:36:12;3.28;;;2.55;;
48526;SDS011;34317;51.660;5.824;2023-04-30T13:38:39;5.03;;;2.90;;
48526;SDS011;34317;51.660;5.824;2023-04-30T13:41:07;3.30;;;2.40;;
48526;SDS011;34317;51.660;5.824;2023-04-30T13:43:34;4.25;;;2.60;;
48526;SDS011;34317;51.660;5.824;2023-04-30T13:46:08;4.43;;;2.30;;
48526;SDS011;34317;51.660;5.824;2023-04-30T13:48:35;4.07;;;2.72;;
48526;SDS011;34317;51.660;5.824;2023-04-30T13:51:02;3.53;;;2.55;;
48526;SDS011;34317;51.660;5.824;2023-04-30T13:53:30;5.18;;;2.58;;
48526;SDS011;34317;51.660;5.824;2023-04-30T13:55:57;2.75;;;2.28;;
48526;SDS011;34317;51.660;5.824;2023-04-30T13:58:25;4.03;;;2.72;;
48526;SDS011;34317;51.660;5.824;2023-04-30T14:00:53;3.90;;;2.40;;
48526;SDS011;34317;51.660;5.824;2023-04-30T14:03:20;3.08;;;2.35;;
48526;SDS011;34317;51.660;5.824;2023-04-30T14:05:48;4.13;;;2.47;;
48526;SDS011;34317;51.660;5.824;2023-04-30T14:08:15;2.83;;;2.15;;
48526;SDS011;34317;51.660;5.824;2023-04-30T14:10:43;4.13;;;2.40;;
48526;SDS011;34317;51.660;5.824;2023-04-30T14:13:10;3.65;;;2.30;;
48526;SDS011;34317;51.660;5.824;2023-04-30T14:15:38;4.32;;;2.33;;
48526;SDS011;34317;51.660;5.824;2023-04-30T14:18:05;2.85;;;1.83;;
48526;SDS011;34317;51.660;5.824;2023-04-30T14:20:33;3.00;;;2.20;;
48526;SDS011;34317;51.660;5.824;2023-04-30T14:23:00;3.75;;;2.50;;
48526;SDS011;34317;51.660;5.824;2023-04-30T14:25:28;3.83;;;2.17;;
48526;SDS011;34317;51.660;5.824;2023-04-30T14:27:56;2.63;;;1.80;;
48526;SDS011;34317;51.660;5.824;2023-04-30T14:30:23;4.97;;;2.72;;
48526;SDS011;34317;51.660;5.824;2023-04-30T14:32:50;4.25;;;2.25;;
48526;SDS011;34317;51.660;5.824;2023-04-30T14:35:17;4.72;;;2.10;;
48526;SDS011;34317;51.660;5.824;2023-04-30T14:37:45;3.33;;;2.10;;
48526;SDS011;34317;51.660;5.824;2023-04-30T14:40:12;2.42;;;1.67;;
48526;SDS011;34317;51.660;5.824;2023-04-30T14:42:40;3.00;;;1.90;;
48526;SDS011;34317;51.660;5.824;2023-04-30T14:45:08;4.10;;;1.92;;
48526;SDS011;34317;51.660;5.824;2023-04-30T14:47:36;3.65;;;1.90;;
48526;SDS011;34317;51.660;5.824;2023-04-30T14:50:03;3.13;;;2.10;;
48526;SDS011;34317;51.660;5.824;2023-04-30T14:52:31;3.13;;;2.10;;
48526;SDS011;34317;51.660;5.824;2023-04-30T14:54:58;2.95;;;2.05;;
48526;SDS011;34317;51.660;5.824;2023-04-30T14:57:25;3.55;;;1.65;;
48526;SDS011;34317;51.660;5.824;2023-04-30T14:59:53;3.08;;;1.90;;
48526;SDS011;34317;51.660;5.824;2023-04-30T15:02:23;2.70;;;1.83;;
48526;SDS011;34317;51.660;5.824;2023-04-30T15:04:50;3.95;;;1.90;;
48526;SDS011;34317;51.660;5.824;2023-04-30T15:07:18;5.45;;;2.10;;
48526;SDS011;34317;51.660;5.824;2023-04-30T15:09:46;3.97;;;1.80;;
48526;SDS011;34317;51.660;5.824;2023-04-30T15:12:13;5.38;;;2.00;;
48526;SDS011;34317;51.660;5.824;2023-04-30T15:14:40;3.03;;;2.00;;
48526;SDS011;34317;51.660;5.824;2023-04-30T15:17:08;3.08;;;1.70;;
48526;SDS011;34317;51.660;5.824;2023-04-30T15:19:35;3.65;;;1.77;;
48526;SDS011;34317;51.660;5.824;2023-04-30T15:22:02;2.55;;;1.60;;
48526;SDS011;34317;51.660;5.824;2023-04-30T15:24:30;2.10;;;1.58;;
48526;SDS011;34317;51.660;5.824;2023-04-30T15:26:57;5.35;;;2.10;;
48526;SDS011;34317;51.660;5.824;2023-04-30T15:29:24;4.43;;;1.88;;
48526;SDS011;34317;51.660;5.824;2023-04-30T15:31:51;4.78;;;1.90;;
48526;SDS011;34317;51.660;5.824;2023-04-30T15:34:20;2.88;;;1.60;;
48526;SDS011;34317;51.660;5.824;2023-04-30T15:36:48;3.10;;;1.58;;
48526;SDS011;34317;51.660;5.824;2023-04-30T15:39:15;3.28;;;1.50;;
48526;SDS011;34317;51.660;5.824;2023-04-30T15:41:43;3.03;;;1.60;;